createdAt,value
2019-04-22T00:02:12.864Z,98291.58
2019-04-22T00:04:55.709Z,98287.25
2019-04-22T00:07:39.867Z,98287.41
2019-04-22T00:10:12.097Z,98285.70
2019-04-22T00:12:45.434Z,98288.16
2019-04-22T00:15:10.109Z,98286.36
2019-04-22T00:20:14.325Z,98277.83
2019-04-22T00:22:44.375Z,98271.85
2019-04-22T00:25:27.916Z,98274.82
2019-04-22T00:28:01.003Z,98264.23
2019-04-22T00:30:22.153Z,98270.06
2019-04-22T00:32:59.627Z,98266.73
2019-04-22T00:35:29.224Z,98262.33
2019-04-22T00:38:11.200Z,98260.22
2019-04-22T00:40:48.694Z,98258.24
2019-04-22T00:43:19.169Z,98256.89
2019-04-22T00:48:21.120Z,98252.82
2019-04-22T00:51:01.323Z,98259.32
2019-04-22T00:53:29.754Z,98250.94
2019-04-22T00:56:07.708Z,98249.38
2019-04-22T00:58:37.942Z,98244.81
2019-04-22T01:01:07.787Z,98244.60
2019-04-22T01:03:44.215Z,98244.98
2019-04-22T01:06:09.748Z,98242.13
2019-04-22T01:08:46.624Z,98237.65
2019-04-22T01:11:17.168Z,98246.66
2019-04-22T01:13:47.025Z,98243.36
2019-04-22T01:16:17.081Z,98243.94
2019-04-22T01:18:49.070Z,98237.66
2019-04-22T01:21:25.189Z,98239.07
2019-04-22T01:23:49.364Z,98237.51
2019-04-22T01:26:22.907Z,98237.52
2019-04-22T01:28:50.037Z,98231.02
2019-04-22T01:31:16.208Z,98230.73
2019-04-22T01:33:48.378Z,98231.58
2019-04-22T01:36:30.362Z,98227.82
2019-04-22T01:39:12.299Z,98230.82
2019-04-22T01:41:48.417Z,98228.52
2019-04-22T01:49:33.482Z,98223.27
2019-04-22T01:52:12.675Z,98228.17
2019-04-22T01:54:41.577Z,98230.39
2019-04-22T01:57:22.878Z,98223.41
2019-04-22T01:59:46.225Z,98222.19
2019-04-22T02:02:32.120Z,98219.41
2019-04-22T02:05:02.902Z,98217.03
2019-04-22T02:07:32.366Z,98212.92
2019-04-22T02:10:07.324Z,98205.39
2019-04-22T02:12:33.708Z,98210.20
2019-04-22T02:15:06.095Z,98206.18
2019-04-22T02:17:36.849Z,98204.16
2019-04-22T02:23:26.260Z,98197.92
2019-04-22T02:28:53.707Z,98196.25
2019-04-22T02:37:05.035Z,98187.43
2019-04-22T02:39:38.797Z,98182.98
2019-04-22T02:44:40.864Z,98171.11
2019-04-22T02:49:37.839Z,98171.50
2019-04-22T02:52:20.471Z,98165.83
2019-04-22T02:54:49.384Z,98166.49
2019-04-22T02:57:22.451Z,98164.34
2019-04-22T02:59:52.614Z,98158.94
2019-04-22T03:02:19.759Z,98160.48
2019-04-22T03:05:08.871Z,98162.11
2019-04-22T03:07:41.086Z,98155.70
2019-04-22T03:10:16.602Z,98154.30
2019-04-22T03:13:00.878Z,98148.37
2019-04-22T03:15:38.146Z,98154.27
2019-04-22T03:18:09.747Z,98147.64
2019-04-22T03:20:33.857Z,98146.41
2019-04-22T03:23:17.684Z,98141.59
2019-04-22T03:28:10.265Z,98140.31
2019-04-22T03:30:53.452Z,98138.41
2019-04-22T03:33:23.430Z,98132.78
2019-04-22T03:38:37.532Z,98137.76
2019-04-22T03:41:10.186Z,98138.06
2019-04-22T03:43:38.066Z,98134.74
2019-04-22T03:45:46.274Z,98128.63
2019-04-22T03:48:28.782Z,98128.66
2019-04-22T03:51:07.928Z,98133.78
2019-04-22T03:56:02.404Z,98125.00
2019-04-22T03:58:37.247Z,98128.52
2019-04-22T04:01:16.202Z,98121.73
2019-04-22T04:03:48.196Z,98118.02
2019-04-22T04:06:36.652Z,98124.93
2019-04-22T04:09:01.882Z,98121.36
2019-04-22T04:11:38.558Z,98114.23
2019-04-22T04:14:18.721Z,98115.68
2019-04-22T04:19:08.243Z,98110.05
2019-04-22T04:21:37.073Z,98104.91
2019-04-22T04:24:24.207Z,98104.16
2019-04-22T04:31:41.306Z,98105.67
2019-04-22T04:34:28.498Z,98098.69
2019-04-22T04:39:45.852Z,98099.91
2019-04-22T04:42:18.308Z,98097.23
2019-04-22T04:47:11.678Z,98098.51
2019-04-22T04:49:48.394Z,98098.31
2019-04-22T04:52:22.591Z,98100.16
2019-04-22T04:54:53.827Z,98102.77
2019-04-22T05:00:06.032Z,98091.57
2019-04-22T05:02:40.510Z,98090.77
2019-04-22T05:07:38.353Z,98087.70
2019-04-22T05:10:09.882Z,98085.15
2019-04-22T05:15:17.675Z,98084.62
2019-04-22T05:20:17.955Z,98084.03
2019-04-22T05:27:42.614Z,98074.75
2019-04-22T05:37:41.563Z,98078.30
2019-04-22T05:42:48.324Z,98080.25
2019-04-22T05:45:17.256Z,98078.56
2019-04-22T05:47:50.713Z,98070.33
2019-04-22T05:52:52.197Z,98075.73
2019-04-22T05:57:59.696Z,98068.38
2019-04-22T06:03:16.835Z,98066.31
2019-04-22T06:05:47.277Z,98060.51
2019-04-22T06:08:33.649Z,98058.47
2019-04-22T06:11:04.135Z,98065.77
2019-04-22T06:13:23.273Z,98052.97
2019-04-22T06:16:20.467Z,98049.59
2019-04-22T06:19:01.039Z,98046.55
2019-04-22T06:21:27.836Z,98045.39
2019-04-22T06:24:04.847Z,98043.83
2019-04-22T06:26:42.703Z,98044.16
2019-04-22T06:29:01.362Z,98041.38
2019-04-22T06:36:37.845Z,98027.59
2019-04-22T06:39:12.877Z,98028.65
2019-04-22T06:41:37.000Z,98026.03
2019-04-22T06:44:11.051Z,98024.24
2019-04-22T06:46:56.386Z,98015.38
2019-04-22T06:49:31.884Z,98013.16
2019-04-22T06:52:08.106Z,98007.84
2019-04-22T06:54:32.646Z,98009.72
2019-04-22T06:57:25.191Z,97996.84
2019-04-22T07:02:56.444Z,97977.03
2019-04-22T07:05:28.534Z,97972.71
2019-04-22T07:08:16.308Z,97953.07
2019-04-22T07:10:50.355Z,97944.66
2019-04-22T07:13:27.354Z,97945.81
2019-04-22T07:18:31.432Z,97930.83
2019-04-22T07:24:24.172Z,97951.63
2019-04-22T07:26:37.807Z,97926.88
2019-04-22T07:29:17.242Z,97920.61
2019-04-22T07:31:45.388Z,97908.37
2019-04-22T07:34:19.678Z,97908.25
2019-04-22T07:36:54.642Z,97910.17
2019-04-22T07:39:15.776Z,97898.53
2019-04-22T07:42:10.709Z,97906.47
2019-04-22T07:44:38.433Z,97898.41
2019-04-22T07:47:46.665Z,97898.55
2019-04-22T07:49:59.206Z,97880.68
2019-04-22T07:57:32.462Z,97886.57
2019-04-22T08:00:09.037Z,97865.67
2019-04-22T08:02:37.910Z,97850.27
2019-04-22T08:05:16.931Z,97836.34
2019-04-22T08:07:34.509Z,97849.12
2019-04-22T08:10:17.208Z,97846.70
2019-04-22T08:12:47.057Z,97837.27
2019-04-22T08:15:32.917Z,97826.36
2019-04-22T08:18:01.577Z,97834.31
2019-04-22T08:23:08.788Z,97832.70
2019-04-22T08:25:44.186Z,97838.81
2019-04-22T08:28:17.394Z,97838.89
2019-04-22T08:30:51.962Z,97839.91
2019-04-22T08:33:21.789Z,97832.46
2019-04-22T08:36:10.500Z,97815.95
2019-04-22T08:38:50.676Z,97819.20
2019-04-22T08:48:54.275Z,97815.48
2019-04-22T08:51:44.281Z,97817.06
2019-04-22T08:54:37.683Z,97791.48
2019-04-22T08:57:12.529Z,97806.35
2019-04-22T08:59:36.897Z,97788.25
2019-04-22T09:02:18.503Z,97784.55
2019-04-22T09:05:10.899Z,97802.23
2019-04-22T09:07:31.571Z,97792.47
2019-04-22T09:10:02.089Z,97784.98
2019-04-22T09:12:56.078Z,97785.09
2019-04-22T09:15:02.487Z,97775.63
2019-04-22T09:17:40.233Z,97776.09
2019-04-22T09:20:15.600Z,97765.14
2019-04-22T09:22:41.181Z,97751.58
2019-04-22T09:25:09.487Z,97744.20
2019-04-22T09:27:48.378Z,97743.23
2019-04-22T09:30:22.792Z,97734.93
2019-04-22T09:33:07.839Z,97710.09
2019-04-22T09:38:32.865Z,97735.52
2019-04-22T09:40:39.326Z,97724.20
2019-04-22T09:43:44.111Z,97724.41
2019-04-22T09:46:14.876Z,97725.94
2019-04-22T09:48:41.725Z,97718.23
2019-04-22T09:51:05.920Z,97724.76
2019-04-22T09:54:00.998Z,97719.29
2019-04-22T09:56:35.382Z,97725.66
2019-04-22T09:59:05.580Z,97718.89
2019-04-22T10:02:09.151Z,97697.21
2019-04-22T10:04:18.578Z,97695.89
2019-04-22T10:06:50.188Z,97689.09
2019-04-22T10:09:59.371Z,97685.85
2019-04-22T10:12:19.314Z,97686.88
2019-04-22T10:14:52.117Z,97678.41
2019-04-22T10:17:36.721Z,97675.02
2019-04-22T10:20:10.214Z,97672.23
2019-04-22T10:25:35.138Z,97656.80
2019-04-22T10:28:27.345Z,97669.59
2019-04-22T10:31:14.520Z,97653.77
2019-04-22T10:33:22.396Z,97667.33
2019-04-22T10:35:32.980Z,97655.06
2019-04-22T10:38:04.046Z,97664.24
2019-04-22T10:40:36.322Z,97655.53
2019-04-22T10:43:09.387Z,97659.56
2019-04-22T10:45:39.948Z,97658.02
2019-04-22T10:48:12.376Z,97631.48
2019-04-22T10:50:46.576Z,97635.16
2019-04-22T10:53:19.758Z,97617.41
2019-04-22T10:55:51.442Z,97627.88
2019-04-22T10:58:22.838Z,97626.64
2019-04-22T11:00:54.120Z,97616.92
2019-04-22T11:03:24.626Z,97613.72
2019-04-22T11:05:54.327Z,97611.17
2019-04-22T11:08:32.233Z,97627.44
2019-04-22T11:11:12.472Z,97616.05
2019-04-22T11:13:28.429Z,97614.16
2019-04-22T11:15:58.546Z,97627.64
2019-04-22T11:18:29.462Z,97604.30
2019-04-22T11:20:59.817Z,97593.42
2019-04-22T11:23:29.607Z,97592.56
2019-04-22T11:26:01.772Z,97591.35
2019-04-22T11:28:31.901Z,97580.31
2019-04-22T11:31:03.346Z,97585.63
2019-04-22T11:33:34.377Z,97580.69
2019-04-22T11:36:24.750Z,97577.56
2019-04-22T11:39:00.154Z,97574.69
2019-04-22T11:41:27.662Z,97578.59
2019-04-22T11:43:59.162Z,97561.87
2019-04-22T11:46:29.540Z,97559.06
2019-04-22T11:49:00.279Z,97553.95
2019-04-22T11:51:31.796Z,97550.04
2019-04-22T11:54:02.924Z,97544.78
2019-04-22T11:56:32.712Z,97548.23
2019-04-22T11:59:02.683Z,97522.38
2019-04-22T12:01:32.977Z,97543.34
2019-04-22T12:04:03.950Z,97540.77
2019-04-22T12:06:33.877Z,97558.72
2019-04-22T12:09:05.805Z,97550.38
2019-04-22T12:11:36.516Z,97542.75
2019-04-22T12:14:27.753Z,97528.12
2019-04-22T12:16:59.430Z,97533.13
2019-04-22T12:19:29.492Z,97524.28
2019-04-22T12:22:00.606Z,97525.01
2019-04-22T12:24:30.355Z,97519.38
2019-04-22T12:27:22.044Z,97538.81
2019-04-22T12:29:51.261Z,97522.84
2019-04-22T12:32:21.444Z,97510.81
2019-04-22T12:34:51.454Z,97511.20
2019-04-22T12:37:25.790Z,97511.19
2019-04-22T12:39:55.951Z,97507.91
2019-04-22T12:42:23.677Z,97506.84
2019-04-22T12:44:54.110Z,97498.91
2019-04-22T12:47:24.430Z,97493.58
2019-04-22T12:50:06.883Z,97486.56
2019-04-22T12:52:54.936Z,97487.83
2019-04-22T12:55:19.730Z,97468.34
2019-04-22T12:58:09.706Z,97455.50
2019-04-22T13:00:40.410Z,97460.22
2019-04-22T13:03:11.047Z,97449.91
2019-04-22T13:05:41.030Z,97446.67
2019-04-22T13:08:11.668Z,97429.29
2019-04-22T13:10:51.547Z,97423.90
2019-04-22T13:13:13.203Z,97430.28
2019-04-22T13:15:42.932Z,97429.33
2019-04-22T13:18:21.355Z,97426.91
2019-04-22T13:20:46.422Z,97425.27
2019-04-22T13:23:15.898Z,97399.21
2019-04-22T13:25:45.372Z,97428.69
2019-04-22T13:28:15.456Z,97431.23
2019-04-22T13:30:46.515Z,97402.66
2019-04-22T13:33:16.796Z,97409.22
2019-04-22T13:35:48.023Z,97421.22
2019-04-22T13:38:17.565Z,97408.00
2019-04-22T13:41:00.900Z,97397.72
2019-04-22T13:43:27.026Z,97396.73
2019-04-22T13:45:58.036Z,97404.49
2019-04-22T13:48:49.918Z,97397.08
2019-04-22T13:51:30.056Z,97395.88
2019-04-22T13:54:29.610Z,97404.66
2019-04-22T13:56:33.192Z,97406.23
2019-04-22T13:58:53.058Z,97393.80
2019-04-22T14:01:14.912Z,97394.09
2019-04-22T14:03:49.356Z,97384.86
2019-04-22T14:06:18.842Z,97381.30
2019-04-22T14:08:49.460Z,97378.39
2019-04-22T14:11:28.700Z,97384.58
2019-04-22T14:13:50.364Z,97383.64
2019-04-22T14:16:20.377Z,97382.55
2019-04-22T14:18:49.908Z,97384.30
2019-04-22T14:21:20.909Z,97387.55
2019-04-22T14:23:50.905Z,97370.97
2019-04-22T14:26:20.595Z,97376.02
2019-04-22T14:28:50.216Z,97370.73
2019-04-22T14:31:20.343Z,97357.72
2019-04-22T14:33:53.651Z,97364.18
2019-04-22T14:36:21.448Z,97360.95
2019-04-22T14:38:52.319Z,97361.88
2019-04-22T14:41:42.628Z,97356.05
2019-04-22T14:44:59.149Z,97349.89
2019-04-22T14:47:03.518Z,97354.66
2019-04-22T14:49:24.136Z,97346.47
2019-04-22T14:51:55.052Z,97339.92
2019-04-22T14:54:37.690Z,97337.82
2019-04-22T14:56:56.379Z,97324.52
2019-04-22T14:59:46.162Z,97327.85
2019-04-22T15:02:17.387Z,97307.95
2019-04-22T15:04:48.035Z,97327.56
2019-04-22T15:07:19.082Z,97303.91
2019-04-22T15:09:50.435Z,97300.88
2019-04-22T15:12:29.995Z,97311.10
2019-04-22T15:15:01.760Z,97309.69
2019-04-22T15:17:34.374Z,97279.28
2019-04-22T15:20:07.805Z,97281.44
2019-04-22T15:22:38.780Z,97273.05
2019-04-22T15:25:10.421Z,97293.54
2019-04-22T15:27:41.485Z,97288.28
2019-04-22T15:30:11.893Z,97288.30
2019-04-22T15:32:41.419Z,97261.32
2019-04-22T15:35:11.510Z,97286.02
2019-04-22T15:37:41.447Z,97286.35
2019-04-22T15:40:13.068Z,97282.42
2019-04-22T15:42:45.263Z,97268.75
2019-04-22T15:45:16.884Z,97268.53
2019-04-22T15:47:48.241Z,97259.32
2019-04-22T15:50:18.984Z,97255.38
2019-04-22T15:52:51.978Z,97261.25
2019-04-22T15:55:20.731Z,97249.23
2019-04-22T15:57:50.279Z,97247.17
2019-04-22T16:00:33.166Z,97245.92
2019-04-22T16:02:55.225Z,97240.03
2019-04-22T16:05:24.817Z,97239.33
2019-04-22T16:07:54.991Z,97241.15
2019-04-22T16:10:26.092Z,97235.88
2019-04-22T16:13:06.663Z,97238.30
2019-04-22T16:15:26.993Z,97236.71
2019-04-22T16:18:04.843Z,97236.23
2019-04-22T16:20:34.373Z,97227.50
2019-04-22T16:23:07.767Z,97216.35
2019-04-22T16:25:39.266Z,97230.41
2019-04-22T16:28:15.474Z,97233.49
2019-04-22T16:30:45.630Z,97229.33
2019-04-22T16:33:17.201Z,97228.31
2019-04-22T16:35:46.979Z,97227.41
2019-04-22T16:38:17.086Z,97220.95
2019-04-22T16:40:46.636Z,97222.59
2019-04-22T16:43:16.594Z,97221.02
2019-04-22T16:45:47.724Z,97218.42
2019-04-22T16:48:17.721Z,97205.58
2019-04-22T16:50:50.592Z,97218.19
2019-04-22T16:53:23.225Z,97204.84
2019-04-22T16:55:53.128Z,97215.51
2019-04-22T16:58:23.159Z,97207.61
2019-04-22T17:00:54.526Z,97206.39
2019-04-22T17:03:30.744Z,97217.51
2019-04-22T17:06:03.404Z,97198.39
2019-04-22T17:08:39.291Z,97208.09
2019-04-22T17:11:09.706Z,97204.50
2019-04-22T17:13:40.353Z,97196.28
2019-04-22T17:16:11.974Z,97203.65
2019-04-22T17:18:43.606Z,97203.58
2019-04-22T17:21:14.674Z,97199.53
2019-04-22T17:23:45.731Z,97204.41
2019-04-22T17:26:16.737Z,97198.88
2019-04-22T17:28:46.423Z,97203.56
2019-04-22T17:31:16.469Z,97200.41
2019-04-22T17:33:46.711Z,97195.70
2019-04-22T17:36:16.518Z,97200.79
2019-04-22T17:38:55.020Z,97199.57
2019-04-22T17:41:44.976Z,97197.92
2019-04-22T17:44:27.847Z,97196.10
2019-04-22T17:46:47.587Z,97196.37
2019-04-22T17:49:33.872Z,97194.09
2019-04-22T17:52:04.706Z,97195.00
2019-04-22T17:54:34.442Z,97191.18
2019-04-22T17:57:08.054Z,97193.02
2019-04-22T17:59:32.757Z,97191.05
2019-04-22T18:02:03.083Z,97192.55
2019-04-22T18:04:46.127Z,97199.52
2019-04-22T18:07:42.945Z,97193.55
2019-04-22T18:10:24.341Z,97194.02
2019-04-22T18:13:13.952Z,97200.52
2019-04-22T18:15:18.866Z,97199.13
2019-04-22T18:18:01.077Z,97200.45
2019-04-22T18:20:25.499Z,97194.14
2019-04-22T18:22:46.238Z,97199.30
2019-04-22T18:25:24.564Z,97203.52
2019-04-22T18:28:06.715Z,97204.02
2019-04-22T18:30:24.264Z,97201.20
2019-04-22T18:33:02.887Z,97198.40
2019-04-22T18:35:35.294Z,97202.16
2019-04-22T18:38:21.873Z,97203.36
2019-04-22T18:40:38.680Z,97203.16
2019-04-22T18:43:17.185Z,97200.61
2019-04-22T18:46:11.236Z,97203.58
2019-04-22T18:48:33.234Z,97200.87
2019-04-22T18:51:11.909Z,97197.68
2019-04-22T18:53:52.006Z,97192.77
2019-04-22T18:56:16.575Z,97190.86
2019-04-22T18:58:42.071Z,97193.00
2019-04-22T19:00:57.758Z,97196.50
2019-04-22T19:03:30.032Z,97199.66
2019-04-22T19:06:48.956Z,97203.07
2019-04-22T19:09:15.425Z,97201.85
2019-04-22T19:11:51.353Z,97207.62
2019-04-22T19:14:20.592Z,97202.86
2019-04-22T19:16:45.154Z,97199.76
2019-04-22T19:19:30.405Z,97203.46
2019-04-22T19:21:47.680Z,97210.07
2019-04-22T19:24:19.679Z,97211.78
2019-04-22T19:27:09.342Z,97217.17
2019-04-22T19:29:45.208Z,97212.97
2019-04-22T19:32:40.174Z,97211.92
2019-04-22T19:35:25.630Z,97212.81
2019-04-22T19:37:54.484Z,97212.78
2019-04-22T19:40:46.197Z,97216.39
2019-04-22T19:43:12.134Z,97212.00
2019-04-22T19:45:36.832Z,97212.95
2019-04-22T19:48:39.703Z,97218.89
2019-04-22T19:53:35.583Z,97206.59
2019-04-22T19:55:59.933Z,97206.23
2019-04-22T19:58:47.399Z,97200.81
2019-04-22T20:01:48.633Z,97200.00
2019-04-22T20:06:53.498Z,97198.20
2019-04-22T20:09:33.407Z,97195.13
2019-04-22T20:11:57.608Z,97197.75
2019-04-22T20:14:49.499Z,97200.40
2019-04-22T20:17:24.472Z,97195.14
2019-04-22T20:19:57.781Z,97205.08
2019-04-22T20:22:17.494Z,97199.73
2019-04-22T20:24:43.508Z,97198.17
2019-04-22T20:27:43.132Z,97196.17
2019-04-22T20:30:02.384Z,97195.86
2019-04-22T20:32:26.303Z,97188.48
2019-04-22T20:35:05.966Z,97185.77
2019-04-22T20:37:54.986Z,97185.48
2019-04-22T20:40:25.319Z,97179.07
2019-04-22T20:45:45.898Z,97177.12
2019-04-22T20:48:40.884Z,97174.13
2019-04-22T20:51:38.510Z,97174.91
2019-04-22T20:54:02.247Z,97170.93
2019-04-22T20:56:25.446Z,97175.12
2019-04-22T20:58:56.170Z,97176.85
2019-04-22T21:01:28.610Z,97181.95
2019-04-22T21:03:48.945Z,97176.77
2019-04-22T21:06:35.019Z,97170.15
2019-04-22T21:09:07.090Z,97171.05
2019-04-22T21:11:34.051Z,97167.88
2019-04-22T21:13:59.800Z,97173.06
2019-04-22T21:16:39.896Z,97171.42
2019-04-22T21:19:20.001Z,97168.08
2019-04-22T21:21:46.679Z,97166.20
2019-04-22T21:24:04.973Z,97163.16
2019-04-22T21:27:09.183Z,97164.05
2019-04-22T21:29:32.000Z,97161.29
2019-04-22T21:32:10.810Z,97159.78
2019-04-22T21:34:46.201Z,97153.86
2019-04-22T21:37:15.969Z,97154.65
2019-04-22T21:39:36.358Z,97147.66
2019-04-22T21:42:12.654Z,97143.09
2019-04-22T21:44:38.119Z,97144.88
2019-04-22T21:47:46.182Z,97144.08
2019-04-22T21:53:00.657Z,97136.81
2019-04-22T21:55:29.688Z,97139.13
2019-04-22T21:58:27.985Z,97131.59
2019-04-22T22:01:07.631Z,97126.57
2019-04-22T22:03:30.024Z,97124.47
2019-04-22T22:05:48.143Z,97113.80
2019-04-22T22:08:37.437Z,97116.81
2019-04-22T22:11:22.808Z,97115.77
2019-04-22T22:13:50.432Z,97118.30
2019-04-22T22:16:19.152Z,97115.91
2019-04-22T22:19:11.153Z,97117.38
2019-04-22T22:21:53.151Z,97117.80
2019-04-22T22:24:41.626Z,97113.53
2019-04-22T22:27:10.971Z,97112.25
2019-04-22T22:29:50.441Z,97115.53
2019-04-22T22:32:19.958Z,97114.25
2019-04-22T22:34:47.522Z,97111.66
2019-04-22T22:37:25.106Z,97109.27
2019-04-22T22:39:55.520Z,97103.95
2019-04-22T22:42:22.484Z,97097.28
2019-04-22T22:45:19.965Z,97101.12
2019-04-22T22:48:03.852Z,97104.17
2019-04-22T22:50:33.701Z,97099.68
2019-04-22T22:53:17.195Z,97093.61
2019-04-22T22:55:33.254Z,97093.94
2019-04-22T22:58:11.395Z,97093.91
2019-04-22T23:00:35.632Z,97088.38
2019-04-22T23:05:44.949Z,97089.25
2019-04-22T23:08:16.970Z,97088.30
2019-04-22T23:10:57.357Z,97085.85
2019-04-22T23:13:38.939Z,97081.95
2019-04-22T23:16:03.308Z,97077.83
2019-04-22T23:18:17.182Z,97073.97
2019-04-22T23:20:49.614Z,97071.36
2019-04-22T23:23:38.169Z,97075.94
2019-04-22T23:26:19.508Z,97072.42
2019-04-22T23:28:51.038Z,97070.00
2019-04-22T23:31:20.993Z,97072.49
2019-04-22T23:33:57.233Z,97069.01
2019-04-22T23:36:23.747Z,97071.86
2019-04-22T23:39:06.924Z,97077.20
2019-04-22T23:41:50.467Z,97075.36
2019-04-22T23:44:13.786Z,97076.02
2019-04-22T23:46:38.018Z,97077.08
2019-04-22T23:49:11.712Z,97070.77
2019-04-22T23:51:55.595Z,97062.01
2019-04-22T23:54:25.669Z,97067.08
2019-04-22T23:56:47.016Z,97064.26
2019-04-22T23:59:34.014Z,97065.50
